Skip Navigation LinksHome page > Weather > Current weather Skip Navigation Links

Current Weather

Sarh, Chad

For information only: do not use for flight planning or navigation.
Latest weather
Observation time Saturday, August 23, 2014 7:00 PM WAT
Local time Saturday, August 23, 2014 8:53 PM WAT
Flight conditions Visual Meteorological Conditions
Winds
Wind direction West-Southwest (240°)
Wind speed 5 mph
Visibility 6.2 mi.
Sky condition
Ceiling unlimited
Cloud layer few clouds 2,000 ft.
Cloud layer few clouds with cumulonimbus 5,000 ft.
Temperature 79°F
Dewpoint 72°F
Altimeter 29.94 in.Hg
Derived measurements
Relative humidity 79%
Heat index 79°F
Density altitude 1966 ft.
METAR FTTA 231800Z 24004KT 9999 FEW020 FEW050CB 26/22 Q1014

Settings

Location code

InnerDrive.Weather 4.0.5341.0 Release CLR 4.0.30319.34014
Copyright ©2014 Inner Drive Technology. All rights reserved. Portions Copyright ©1986-2014 David Braverman.

Find weather

Site navigation


Skip Navigation Links

Place info

Page info

PayPal - The safer, easier way to pay online!

Return home.

Copyright ©2014 Inner Drive Technology. Purveyors of fine, hand-crafted computer software. Page printed 2014-08-23T19:53:46 UTC.